Time;durP1;ratioP1;P1;durP2;ratioP2;P2;SDS_P1;SDS_P2;PMS_P1;PMS_P2;Temp;Humidity;BMP_temperature;BMP_pressure;BME280_temperature;BME280_humidity;BME280_pressure;Samples;Min_cycle;Max_cycle;Signal;HPM_P1;HPM_P2
2022/05/13 00:00:14;;;;;;;10.00;6.40;;;25.60;57.20;;;;;;5058936;28;20198;-48
2022/05/13 00:02:40;;;;;;;7.63;6.10;;;25.60;57.30;;;;;;5057195;28;20232;-46
2022/05/13 00:05:06;;;;;;;7.23;5.53;;;25.60;57.20;;;;;;5049292;28;20443;-45
2022/05/13 00:07:32;;;;;;;6.40;6.00;;;25.60;57.60;;;;;;5054524;28;20296;-46
2022/05/13 00:09:59;;;;;;;7.77;6.27;;;25.60;57.70;;;;;;5060770;28;20456;-46
2022/05/13 00:12:27;;;;;;;6.80;6.30;;;25.60;57.70;;;;;;5063195;28;20196;-45
2022/05/13 00:14:53;;;;;;;9.17;7.10;;;25.60;57.80;;;;;;5057338;28;20445;-44
2022/05/13 00:17:21;;;;;;;7.67;6.00;;;25.60;57.80;;;;;;5063908;28;20492;-46
2022/05/13 00:19:46;;;;;;;6.33;5.83;;;25.60;57.80;;;;;;5051074;28;20447;-46
2022/05/13 00:22:12;;;;;;;6.30;5.80;;;25.60;57.90;;;;;;5061176;28;20858;-45
2022/05/13 00:24:39;;;;;;;6.90;6.20;;;25.60;57.80;;;;;;5050089;28;20192;-44
2022/05/13 00:27:05;;;;;;;7.50;6.80;;;25.60;57.80;;;;;;5062374;28;20486;-46
2022/05/13 00:29:31;;;;;;;7.47;5.83;;;25.60;57.80;;;;;;5058489;28;20962;-45
2022/05/13 00:31:56;;;;;;;7.07;6.47;;;25.60;57.70;;;;;;5052858;28;20430;-45
2022/05/13 00:34:22;;;;;;;6.90;6.20;;;25.60;57.70;;;;;;5062701;28;20192;-46
2022/05/13 00:36:48;;;;;;;6.57;6.03;;;25.60;57.80;;;;;;5059718;28;20188;-46
2022/05/13 00:39:14;;;;;;;6.63;6.03;;;25.60;57.70;;;;;;5059582;28;20224;-47
2022/05/13 00:41:40;;;;;;;6.60;5.90;;;25.60;57.70;;;;;;5056197;28;20195;-45
2022/05/13 00:44:07;;;;;;;10.27;6.80;;;25.50;57.60;;;;;;5058073;28;20230;-47
2022/05/13 00:46:32;;;;;;;6.90;5.60;;;25.50;57.60;;;;;;5055107;28;20464;-45
2022/05/13 00:49:01;;;;;;;6.13;5.40;;;25.50;57.60;;;;;;5061086;28;20494;-48
2022/05/13 00:51:47;;;;;;;7.53;6.10;;;25.50;57.60;;;;;;5060733;28;20271;-45
2022/05/13 00:54:14;;;;;;;6.73;6.03;;;25.50;57.70;;;;;;5065936;28;20441;-46
2022/05/13 00:56:48;;;;;;;6.33;5.80;;;25.50;57.50;;;;;;5059208;28;20783;-45
2022/05/13 00:59:18;;;;;;;6.67;6.17;;;25.50;57.60;;;;;;5074509;28;20532;-45
2022/05/13 01:01:43;;;;;;;7.60;6.80;;;25.50;57.60;;;;;;5060676;28;20477;-45
2022/05/13 01:04:14;;;;;;;6.50;5.93;;;25.50;57.50;;;;;;5057454;28;21159;-45
2022/05/13 01:06:44;;;;;;;6.77;6.27;;;25.50;57.60;;;;;;5054684;28;20448;-44
2022/05/13 01:09:10;;;;;;;7.83;6.60;;;25.50;57.80;;;;;;5057234;28;20458;-46
2022/05/13 01:11:38;;;;;;;8.70;7.00;;;25.50;57.60;;;;;;5056073;28;20460;-45
2022/05/13 01:14:13;;;;;;;8.20;7.50;;;25.40;57.70;;;;;;5060149;28;21020;-46
2022/05/13 01:19:23;;;;;;;7.20;6.60;;;25.40;57.80;;;;;;5067381;28;20449;-45
2022/05/13 01:21:50;;;;;;;6.70;6.10;;;25.40;57.90;;;;;;5062268;28;20446;-47
2022/05/13 01:24:17;;;;;;;9.10;6.70;;;25.50;57.90;;;;;;5051970;28;20447;-45
2022/05/13 01:26:42;;;;;;;7.40;6.70;;;25.50;57.90;;;;;;5051030;28;20441;-46
2022/05/13 01:29:08;;;;;;;7.13;6.63;;;25.40;57.70;;;;;;5057369;28;20496;-46
2022/05/13 01:31:37;;;;;;;8.03;6.97;;;25.40;57.90;;;;;;5059495;28;20203;-45
2022/05/13 01:34:06;;;;;;;7.07;6.47;;;25.40;58.00;;;;;;5066133;28;20202;-44
2022/05/13 01:36:33;;;;;;;8.47;7.57;;;25.40;58.00;;;;;;5057688;28;20442;-45
2022/05/13 01:38:58;;;;;;;6.93;6.33;;;25.40;57.80;;;;;;5067742;28;20445;-45
2022/05/13 01:41:25;;;;;;;7.83;7.23;;;25.40;58.10;;;;;;5056444;28;20437;-45
2022/05/13 01:43:52;;;;;;;8.37;7.60;;;25.40;58.50;;;;;;5063878;28;20343;-46
2022/05/13 01:46:19;;;;;;;7.53;6.70;;;25.40;58.70;;;;;;5057985;28;20525;-45
2022/05/13 01:48:46;;;;;;;9.00;6.77;;;25.40;58.80;;;;;;5062038;28;20972;-44
2022/05/13 01:51:11;;;;;;;7.60;6.90;;;25.40;58.90;;;;;;5060761;28;20516;-45
2022/05/13 01:53:37;;;;;;;8.03;6.90;;;25.40;58.90;;;;;;5059609;28;22351;-46
2022/05/13 01:56:03;;;;;;;8.10;7.33;;;25.30;58.90;;;;;;5059286;28;20188;-45
2022/05/13 01:58:29;;;;;;;10.60;8.10;;;25.30;59.00;;;;;;5059864;28;20211;-44
2022/05/13 02:00:57;;;;;;;8.53;7.27;;;25.30;58.80;;;;;;5060786;28;22415;-47
2022/05/13 02:06:08;;;;;;;8.30;7.50;;;25.10;58.40;;;;;;5056371;28;20442;-47
2022/05/13 02:08:35;;;;;;;7.10;6.60;;;25.00;58.70;;;;;;5068797;28;20489;-44
2022/05/13 02:11:02;;;;;;;8.07;6.40;;;24.90;59.00;;;;;;5057029;28;20214;-45
2022/05/13 02:13:28;;;;;;;6.37;5.80;;;24.70;59.10;;;;;;5060629;28;20485;-45
2022/05/13 02:15:54;;;;;;;7.90;6.63;;;24.60;59.50;;;;;;5064860;28;20483;-45
2022/05/13 02:18:20;;;;;;;6.53;5.93;;;24.40;59.90;;;;;;5063166;28;20296;-45
2022/05/13 02:20:46;;;;;;;6.70;6.20;;;24.30;60.30;;;;;;5064562;28;20434;-44
2022/05/13 02:23:13;;;;;;;6.10;5.20;;;24.10;60.70;;;;;;5064565;28;20473;-45
2022/05/13 02:25:39;;;;;;;6.60;6.00;;;24.10;61.00;;;;;;5062578;28;21034;-44
2022/05/13 02:28:05;;;;;;;6.80;6.20;;;24.00;60.80;;;;;;5051431;28;20490;-46
2022/05/13 02:30:32;;;;;;;8.17;7.37;;;24.00;61.10;;;;;;5058558;28;20189;-44
2022/05/13 02:32:58;;;;;;;8.17;5.97;;;23.90;62.40;;;;;;5061215;28;20450;-46
2022/05/13 02:35:24;;;;;;;6.10;5.43;;;23.50;62.30;;;;;;5073382;28;20443;-46
2022/05/13 02:37:50;;;;;;;6.50;4.77;;;23.20;63.00;;;;;;5056394;28;20426;-44
2022/05/13 02:40:17;;;;;;;5.97;4.67;;;23.20;63.60;;;;;;5056449;28;20446;-44
2022/05/13 02:42:43;;;;;;;5.33;3.97;;;23.20;63.10;;;;;;5056864;28;20192;-46
2022/05/13 02:45:09;;;;;;;5.33;4.87;;;23.20;62.60;;;;;;5060145;28;20946;-44
2022/05/13 02:47:39;;;;;;;6.27;4.50;;;23.10;62.70;;;;;;5057861;28;20247;-44
2022/05/13 02:50:19;;;;;;;4.53;3.80;;;23.20;62.70;;;;;;5059028;28;20600;-45
2022/05/13 02:52:50;;;;;;;5.43;4.00;;;23.20;62.70;;;;;;5064544;28;20530;-44
2022/05/13 02:55:16;;;;;;;5.53;4.30;;;23.20;62.50;;;;;;5060735;28;20951;-45
2022/05/13 02:57:42;;;;;;;4.43;4.03;;;23.20;62.30;;;;;;5060001;28;20512;-45
2022/05/13 03:00:08;;;;;;;4.90;3.80;;;23.20;62.40;;;;;;5063631;28;20462;-43
2022/05/13 03:02:35;;;;;;;7.10;4.40;;;23.10;62.10;;;;;;5061734;28;20991;-43
2022/05/13 03:05:00;;;;;;;4.87;4.47;;;23.20;62.30;;;;;;5051505;28;20450;-44
2022/05/13 03:07:26;;;;;;;4.77;4.37;;;23.10;62.20;;;;;;5065640;28;20861;-45
2022/05/13 03:09:51;;;;;;;6.13;4.33;;;23.00;62.80;;;;;;5063912;28;20639;-45
2022/05/13 03:12:18;;;;;;;6.27;4.40;;;23.00;63.20;;;;;;5062792;28;20192;-45
2022/05/13 03:14:43;;;;;;;5.73;4.57;;;22.90;63.10;;;;;;5058126;28;20196;-45
2022/05/13 03:17:09;;;;;;;8.30;5.10;;;22.90;63.10;;;;;;5064745;28;20449;-46
2022/05/13 03:19:36;;;;;;;6.90;4.60;;;22.80;63.20;;;;;;5059788;28;20227;-44
2022/05/13 03:22:03;;;;;;;6.23;4.17;;;22.80;63.10;;;;;;5056688;28;20442;-45
2022/05/13 03:24:29;;;;;;;7.90;4.73;;;22.80;62.50;;;;;;5054373;28;20488;-46
2022/05/13 03:26:55;;;;;;;5.47;4.97;;;22.70;62.70;;;;;;5043891;28;20585;-44
2022/05/13 03:29:20;;;;;;;8.10;4.50;;;22.80;62.60;;;;;;5055672;28;20196;-45
2022/05/13 03:31:47;;;;;;;5.70;5.07;;;22.80;62.70;;;;;;5058878;28;20242;-43
2022/05/13 03:34:13;;;;;;;5.60;5.10;;;22.80;62.40;;;;;;5058811;28;20218;-43
2022/05/13 03:36:39;;;;;;;5.43;4.67;;;22.80;62.30;;;;;;5059404;28;21266;-44
2022/05/13 03:39:05;;;;;;;6.67;4.87;;;22.80;62.80;;;;;;5056711;28;20435;-43
2022/05/13 03:41:30;;;;;;;5.47;4.97;;;22.80;63.00;;;;;;5053109;28;20201;-45
2022/05/13 03:43:56;;;;;;;6.13;4.90;;;22.80;63.10;;;;;;5051835;28;20188;-44
2022/05/13 03:46:22;;;;;;;6.47;4.80;;;22.90;63.20;;;;;;5061517;28;22054;-47
2022/05/13 03:48:48;;;;;;;8.37;5.10;;;22.90;63.40;;;;;;5055586;28;20494;-43
2022/05/13 03:51:14;;;;;;;5.77;4.40;;;22.90;63.80;;;;;;5066035;28;20485;-45
2022/05/13 03:53:39;;;;;;;5.43;4.60;;;22.90;63.60;;;;;;5061333;28;20203;-44
2022/05/13 03:56:05;;;;;;;7.73;5.03;;;22.90;63.50;;;;;;5056685;28;20195;-45
2022/05/13 03:58:31;;;;;;;7.63;5.27;;;22.80;63.80;;;;;;5058444;28;20208;-44
2022/05/13 04:00:57;;;;;;;5.83;4.63;;;22.80;64.30;;;;;;5051960;28;20498;-45
2022/05/13 04:03:23;;;;;;;6.00;5.10;;;22.80;64.40;;;;;;5051404;28;20450;-46
2022/05/13 04:11:17;;;;;;;9.40;5.07;;;22.70;63.90;;;;;;5063973;28;20456;-45
2022/05/13 04:16:27;;;;;;;5.50;5.00;;;22.70;64.00;;;;;;5059634;28;20270;-44
2022/05/13 04:18:53;;;;;;;6.27;5.10;;;22.70;64.00;;;;;;5062965;28;20434;-44
2022/05/13 04:21:28;;;;;;;6.47;5.50;;;22.60;64.60;;;;;;5059562;28;20243;-44
2022/05/13 04:23:56;;;;;;;11.33;5.67;;;22.40;65.30;;;;;;5060118;28;20370;-44
2022/05/13 04:26:22;;;;;;;10.60;6.07;;;22.40;65.60;;;;;;5054702;28;20451;-45
2022/05/13 04:28:49;;;;;;;6.13;5.53;;;22.40;65.60;;;;;;5047107;28;20490;-44
2022/05/13 04:31:17;;;;;;;6.03;5.40;;;22.50;65.70;;;;;;5060451;28;20199;-44
2022/05/13 04:33:43;;;;;;;7.33;5.83;;;22.50;65.60;;;;;;5065609;28;20449;-43
2022/05/13 04:36:09;;;;;;;8.00;5.37;;;22.40;65.90;;;;;;5068198;28;20437;-45
2022/05/13 04:38:36;;;;;;;6.93;5.27;;;22.40;65.90;;;;;;5062166;28;20683;-43
2022/05/13 04:43:46;;;;;;;5.80;5.10;;;22.50;65.50;;;;;;5061117;28;20525;-44
2022/05/13 04:46:12;;;;;;;5.60;4.97;;;22.60;65.50;;;;;;5056579;28;20486;-43
2022/05/13 04:48:38;;;;;;;5.80;5.27;;;22.60;65.50;;;;;;5060556;28;20249;-46
2022/05/13 04:51:04;;;;;;;10.17;5.67;;;22.70;65.80;;;;;;5063766;28;20192;-44
2022/05/13 04:53:35;;;;;;;7.13;5.60;;;22.70;66.00;;;;;;5067418;28;20233;-44
2022/05/13 04:56:02;;;;;;;8.70;5.60;;;22.70;66.00;;;;;;5061333;28;20435;-47
2022/05/13 04:58:28;;;;;;;7.97;6.30;;;22.70;66.00;;;;;;5056882;28;20453;-43
2022/05/13 05:00:55;;;;;;;7.13;5.90;;;22.70;65.90;;;;;;5065635;28;20434;-46
2022/05/13 05:03:22;;;;;;;7.13;5.20;;;22.70;66.00;;;;;;5065993;28;20198;-46
2022/05/13 05:05:48;;;;;;;6.43;5.77;;;22.80;66.00;;;;;;5063657;28;20469;-44
2022/05/13 05:08:15;;;;;;;8.50;5.70;;;22.80;66.00;;;;;;5059464;28;20515;-44
2022/05/13 05:10:42;;;;;;;11.00;5.53;;;22.80;66.10;;;;;;5056212;28;20296;-44
2022/05/13 05:13:08;;;;;;;8.53;5.53;;;22.80;65.50;;;;;;5064485;28;20434;-47
2022/05/13 05:15:35;;;;;;;6.10;4.80;;;22.80;65.40;;;;;;5058920;28;20464;-44
2022/05/13 05:18:01;;;;;;;8.00;6.00;;;22.80;65.50;;;;;;5050664;28;20532;-44
2022/05/13 05:20:27;;;;;;;6.73;6.00;;;22.90;65.60;;;;;;5050174;28;20442;-45
2022/05/13 05:22:53;;;;;;;8.07;5.93;;;22.80;65.00;;;;;;5058077;28;20199;-44
2022/05/13 05:25:21;;;;;;;7.97;5.87;;;22.80;64.80;;;;;;5056126;28;20441;-45
2022/05/13 05:27:48;;;;;;;8.60;6.07;;;22.80;65.00;;;;;;5054137;28;20219;-44
2022/05/13 05:30:15;;;;;;;7.47;6.77;;;22.70;65.10;;;;;;5047038;28;20510;-43
2022/05/13 05:32:41;;;;;;;8.50;6.13;;;22.60;65.70;;;;;;5054930;28;20439;-44
2022/05/13 05:35:11;;;;;;;6.73;5.93;;;22.50;66.00;;;;;;5057436;28;20905;-46
2022/05/13 05:37:36;;;;;;;11.60;6.40;;;22.50;66.50;;;;;;5062146;28;20442;-47
2022/05/13 05:40:03;;;;;;;7.10;6.40;;;22.50;67.20;;;;;;5054391;28;20975;-46
2022/05/13 05:42:29;;;;;;;14.10;5.60;;;22.60;66.60;;;;;;5057783;28;20230;-44
2022/05/13 05:44:55;;;;;;;10.03;5.93;;;22.60;69.80;;;;;;5054133;28;21195;-44
2022/05/13 05:47:24;;;;;;;7.07;5.67;;;22.80;69.60;;;;;;5061374;28;20504;-43
2022/05/13 05:49:50;;;;;;;6.87;5.03;;;23.10;68.00;;;;;;5052155;28;20195;-42
2022/05/13 05:52:16;;;;;;;5.60;4.97;;;23.40;65.60;;;;;;5054016;28;20529;-43
2022/05/13 05:57:27;;;;;;;5.90;4.90;;;23.70;63.90;;;;;;5047252;28;21900;-43
2022/05/13 05:59:53;;;;;;;7.93;5.20;;;23.90;63.40;;;;;;5057764;28;20827;-45
2022/05/13 06:02:19;;;;;;;7.27;5.40;;;24.00;62.80;;;;;;5052674;28;20474;-42
2022/05/13 06:04:45;;;;;;;5.50;5.00;;;24.10;62.30;;;;;;5051242;28;20489;-43
2022/05/13 06:07:15;;;;;;;9.40;5.10;;;24.20;61.80;;;;;;5056550;28;20582;-43
2022/05/13 06:09:44;;;;;;;13.77;5.57;;;24.30;61.40;;;;;;5048218;28;20470;-44
2022/05/13 06:12:13;;;;;;;5.60;5.20;;;24.40;61.00;;;;;;5059931;28;20470;-46
2022/05/13 06:14:39;;;;;;;6.20;5.20;;;24.40;60.80;;;;;;5057488;28;20484;-43
2022/05/13 06:17:05;;;;;;;5.67;4.90;;;24.50;60.60;;;;;;5053650;28;20439;-45
2022/05/13 06:19:31;;;;;;;5.30;4.73;;;24.60;60.20;;;;;;5061647;28;20481;-43
2022/05/13 06:21:57;;;;;;;7.00;5.60;;;24.60;60.10;;;;;;5065702;28;20433;-43
2022/05/13 06:24:23;;;;;;;6.97;5.20;;;24.50;59.80;;;;;;5061869;28;20465;-44
2022/05/13 06:26:50;;;;;;;6.90;5.30;;;24.50;60.10;;;;;;5056260;28;20643;-43
2022/05/13 06:29:19;;;;;;;5.70;5.10;;;24.60;60.00;;;;;;5065160;28;20999;-43
2022/05/13 06:31:45;;;;;;;6.50;4.97;;;24.60;59.80;;;;;;5051698;28;20519;-43
2022/05/13 06:34:12;;;;;;;12.53;7.57;;;24.60;60.10;;;;;;5064860;28;20522;-44
2022/05/13 06:36:38;;;;;;;6.90;6.20;;;24.60;59.80;;;;;;5064725;28;20310;-45
2022/05/13 06:39:05;;;;;;;7.07;6.20;;;24.70;59.80;;;;;;5067915;28;22035;-45
2022/05/13 06:41:31;;;;;;;10.90;6.80;;;24.70;59.70;;;;;;5057517;28;20660;-43
2022/05/13 06:43:57;;;;;;;6.77;6.07;;;24.70;60.30;;;;;;5065243;28;20461;-45
2022/05/13 06:46:23;;;;;;;7.03;6.30;;;24.70;59.80;;;;;;5066156;28;20437;-45
2022/05/13 06:48:49;;;;;;;8.17;6.53;;;24.80;59.70;;;;;;5072830;28;20223;-45
2022/05/13 06:51:16;;;;;;;7.30;5.03;;;24.80;59.10;;;;;;5063176;28;20466;-46
2022/05/13 06:53:41;;;;;;;5.00;4.50;;;24.80;59.20;;;;;;5064346;28;20436;-45
2022/05/13 06:56:07;;;;;;;6.90;5.37;;;24.90;59.20;;;;;;5062121;28;20957;-44
2022/05/13 06:58:32;;;;;;;7.97;5.07;;;24.90;58.90;;;;;;5061153;28;20269;-44
2022/05/13 07:00:58;;;;;;;5.67;5.20;;;25.00;58.80;;;;;;5067670;28;20339;-44
2022/05/13 07:03:24;;;;;;;5.30;4.67;;;25.00;58.70;;;;;;5055639;28;20253;-47
2022/05/13 07:05:49;;;;;;;5.33;4.83;;;25.00;58.50;;;;;;5069123;28;20200;-45
2022/05/13 07:08:15;;;;;;;5.50;5.00;;;25.10;58.40;;;;;;5069985;28;20681;-48
2022/05/13 07:10:42;;;;;;;6.90;5.90;;;25.10;58.00;;;;;;5065874;28;20202;-44
2022/05/13 07:13:09;;;;;;;5.53;4.73;;;25.10;58.00;;;;;;5056885;28;20263;-45
2022/05/13 07:15:35;;;;;;;8.83;6.13;;;25.10;57.90;;;;;;5059909;28;20787;-44
2022/05/13 07:18:01;;;;;;;5.77;4.90;;;25.00;57.70;;;;;;5070572;28;21075;-45
2022/05/13 07:20:28;;;;;;;7.03;5.83;;;25.10;57.90;;;;;;5064702;28;20444;-46
2022/05/13 07:22:54;;;;;;;7.73;5.63;;;25.10;57.80;;;;;;5056454;28;20605;-44
2022/05/13 07:25:21;;;;;;;7.20;5.10;;;25.10;57.60;;;;;;5056764;28;20864;-44
2022/05/13 07:27:46;;;;;;;12.80;5.30;;;25.10;57.40;;;;;;5060372;28;21334;-45
2022/05/13 07:30:12;;;;;;;8.50;5.70;;;25.10;57.60;;;;;;5060236;28;20445;-47
2022/05/13 07:32:38;;;;;;;5.03;4.57;;;25.00;57.60;;;;;;5058262;28;20345;-45
2022/05/13 07:35:05;;;;;;;7.00;5.93;;;24.90;57.30;;;;;;5070717;28;21396;-44
2022/05/13 07:37:31;;;;;;;7.40;4.63;;;24.90;56.50;;;;;;5068112;28;20350;-45
2022/05/13 07:42:41;;;;;;;5.20;4.27;;;24.80;56.50;;;;;;5061730;28;20836;-45
2022/05/13 07:45:07;;;;;;;9.30;4.50;;;24.80;56.50;;;;;;5070695;28;20438;-44
2022/05/13 07:47:34;;;;;;;6.23;4.43;;;24.60;56.00;;;;;;5061235;28;20593;-46
2022/05/13 07:49:59;;;;;;;6.43;4.60;;;24.60;56.40;;;;;;5062593;28;20443;-44
2022/05/13 07:52:26;;;;;;;10.30;4.83;;;24.60;56.40;;;;;;5067707;28;20488;-48
2022/05/13 07:54:51;;;;;;;6.37;3.80;;;24.60;56.40;;;;;;5061475;28;20201;-45
2022/05/13 07:57:17;;;;;;;6.37;4.00;;;24.60;56.60;;;;;;5065321;28;20441;-44
2022/05/13 08:02:27;;;;;;;7.93;4.07;;;24.80;56.30;;;;;;5057779;28;20254;-44
2022/05/13 08:04:52;;;;;;;6.07;3.83;;;24.80;56.30;;;;;;5065806;28;20442;-45
2022/05/13 08:07:18;;;;;;;8.10;4.17;;;24.80;56.10;;;;;;5064661;28;20571;-47
2022/05/13 08:09:43;;;;;;;5.53;4.07;;;24.80;55.70;;;;;;5066707;28;20223;-45
2022/05/13 08:12:09;;;;;;;4.90;4.33;;;24.90;55.60;;;;;;5057718;28;20233;-46
2022/05/13 08:14:35;;;;;;;5.30;4.17;;;24.90;55.10;;;;;;5053242;28;20319;-44
2022/05/13 08:17:00;;;;;;;11.37;4.43;;;24.90;54.90;;;;;;5057057;28;20442;-44
2022/05/13 08:19:26;;;;;;;5.30;3.80;;;24.80;54.10;;;;;;5059764;28;20283;-45
2022/05/13 08:21:51;;;;;;;4.70;3.53;;;24.80;53.80;;;;;;5065738;28;20647;-46
2022/05/13 08:24:17;;;;;;;4.90;3.43;;;24.70;53.60;;;;;;5061357;28;20204;-45
2022/05/13 08:26:43;;;;;;;5.80;3.57;;;24.80;53.40;;;;;;5067485;28;20192;-44
2022/05/13 08:29:08;;;;;;;6.83;3.80;;;24.80;53.00;;;;;;5065160;28;20239;-45
2022/05/13 08:31:35;;;;;;;8.30;3.60;;;24.80;53.30;;;;;;5060281;28;20542;-44
2022/05/13 08:34:00;;;;;;;7.00;3.37;;;24.80;53.10;;;;;;5059434;28;20196;-44
2022/05/13 08:36:26;;;;;;;4.57;3.37;;;24.90;53.00;;;;;;5060264;28;20519;-44
2022/05/13 08:38:52;;;;;;;6.53;4.30;;;24.90;53.30;;;;;;5061354;28;20215;-44
2022/05/13 08:41:34;;;;;;;5.33;3.33;;;25.00;53.40;;;;;;5056919;28;20191;-47
2022/05/13 08:44:04;;;;;;;7.47;3.87;;;25.00;53.10;;;;;;5059318;28;20192;-45
2022/05/13 08:46:35;;;;;;;7.20;3.30;;;24.80;52.50;;;;;;5051658;28;20445;-47
2022/05/13 08:49:23;;;;;;;4.80;4.00;;;24.60;52.30;;;;;;5066141;28;20488;-45
2022/05/13 08:51:54;;;;;;;7.13;3.77;;;24.70;53.60;;;;;;5052251;28;20439;-45
2022/05/13 08:54:23;;;;;;;4.87;3.37;;;24.90;53.10;;;;;;5053573;28;20466;-45
2022/05/13 08:56:52;;;;;;;5.37;3.57;;;24.90;52.60;;;;;;5055598;28;20445;-44
2022/05/13 08:59:19;;;;;;;7.37;4.00;;;25.00;50.90;;;;;;5056023;28;21156;-44
2022/05/13 09:01:53;;;;;;;3.50;2.80;;;25.00;49.50;;;;;;5054409;28;20477;-46
2022/05/13 09:04:37;;;;;;;3.90;3.40;;;24.90;49.40;;;;;;5051818;28;20474;-44
2022/05/13 09:07:10;;;;;;;4.50;2.60;;;24.90;49.00;;;;;;5059933;28;20502;-45
2022/05/13 09:09:36;;;;;;;4.27;2.60;;;24.60;48.40;;;;;;5056651;28;20904;-44
2022/05/13 09:12:35;;;;;;;10.07;2.83;;;24.70;47.50;;;;;;5058004;28;20453;-44
2022/05/13 09:15:17;;;;;;;3.67;2.70;;;25.00;47.90;;;;;;5055671;28;21102;-44
2022/05/13 09:18:01;;;;;;;5.93;3.33;;;25.00;47.50;;;;;;5061697;28;20450;-45
2022/05/13 09:20:27;;;;;;;8.10;2.60;;;25.20;47.00;;;;;;5058895;28;20533;-47
2022/05/13 09:23:01;;;;;;;6.83;3.40;;;25.30;47.00;;;;;;5059263;28;20844;-45
2022/05/13 09:25:37;;;;;;;6.80;3.67;;;25.20;46.30;;;;;;5060501;28;20491;-44
2022/05/13 09:28:11;;;;;;;4.07;2.70;;;24.80;46.60;;;;;;5049181;28;20535;-44
2022/05/13 09:30:45;;;;;;;7.63;3.13;;;24.60;47.70;;;;;;5050550;28;20453;-44
2022/05/13 09:33:31;;;;;;;7.33;2.70;;;24.50;48.60;;;;;;5056124;28;20447;-46
2022/05/13 09:36:00;;;;;;;5.00;2.97;;;24.70;47.70;;;;;;5047869;28;20447;-47
2022/05/13 09:38:31;;;;;;;7.67;3.90;;;24.80;48.10;;;;;;5064431;28;20438;-46
2022/05/13 09:41:03;;;;;;;8.40;3.43;;;24.70;47.80;;;;;;5049970;28;20447;-44
2022/05/13 09:43:42;;;;;;;5.03;2.97;;;24.80;48.00;;;;;;5051656;28;20459;-48
2022/05/13 09:46:24;;;;;;;4.70;2.93;;;24.90;47.70;;;;;;5055175;28;20492;-46
2022/05/13 09:49:01;;;;;;;8.80;3.20;;;25.00;47.80;;;;;;5054781;28;20910;-43
2022/05/13 09:51:36;;;;;;;7.60;3.50;;;25.00;46.80;;;;;;5059514;28;20456;-46
2022/05/13 09:54:07;;;;;;;8.87;3.40;;;25.10;48.10;;;;;;5066579;28;20808;-45
2022/05/13 09:56:48;;;;;;;4.97;2.77;;;25.10;47.80;;;;;;5095726;28;20498;-46
2022/05/13 09:59:24;;;;;;;5.30;3.37;;;25.20;47.40;;;;;;5065520;28;20446;-46
2022/05/13 10:01:51;;;;;;;7.27;3.23;;;25.10;46.20;;;;;;5062380;28;20540;-43
2022/05/13 10:04:26;;;;;;;6.03;3.03;;;24.80;46.90;;;;;;5053413;28;20493;-44
2022/05/13 10:07:05;;;;;;;5.20;2.37;;;24.80;47.00;;;;;;5059814;28;20471;-45
2022/05/13 10:15:25;;;;;;;4.97;2.60;;;24.20;46.40;;;;;;5053396;28;20529;-45
2022/05/13 10:17:56;;;;;;;3.00;2.50;;;24.30;46.60;;;;;;5058086;28;20446;-45
2022/05/13 10:20:41;;;;;;;9.57;2.43;;;24.40;46.50;;;;;;5065738;28;20495;-44
2022/05/13 10:23:18;;;;;;;4.47;2.90;;;24.30;46.80;;;;;;5063537;28;20781;-44
2022/05/13 10:25:56;;;;;;;3.00;2.10;;;24.40;46.20;;;;;;5067414;28;20457;-44
2022/05/13 10:28:33;;;;;;;5.50;2.80;;;24.20;45.80;;;;;;5066387;28;20580;-45
2022/05/13 10:31:04;;;;;;;3.60;2.97;;;24.20;46.70;;;;;;5063130;28;20433;-45
2022/05/13 10:33:42;;;;;;;7.60;2.83;;;24.20;46.50;;;;;;5064057;28;20463;-44
2022/05/13 10:36:14;;;;;;;4.97;2.97;;;24.30;46.40;;;;;;5062833;28;20450;-44
2022/05/13 10:39:00;;;;;;;6.33;3.50;;;24.20;47.40;;;;;;5067318;28;20584;-44
2022/05/13 10:41:56;;;;;;;7.10;3.63;;;24.50;48.50;;;;;;5065787;28;20525;-46
2022/05/13 10:44:39;;;;;;;6.43;4.23;;;24.80;48.60;;;;;;5053825;28;20482;-45
2022/05/13 10:47:13;;;;;;;8.50;4.13;;;24.80;47.90;;;;;;5064755;28;20445;-45
2022/05/13 10:49:41;;;;;;;3.57;3.27;;;25.00;47.90;;;;;;5059595;28;21134;-44
2022/05/13 10:52:35;;;;;;;5.73;3.50;;;25.20;47.60;;;;;;5053810;28;20439;-44
2022/05/13 10:55:15;;;;;;;8.17;3.57;;;25.40;48.00;;;;;;5056321;28;20534;-46
2022/05/13 10:58:01;;;;;;;4.23;3.73;;;25.60;47.60;;;;;;5059706;28;20445;-44
2022/05/13 11:00:37;;;;;;;6.33;3.30;;;25.50;47.30;;;;;;5058668;28;20509;-48
2022/05/13 11:03:37;;;;;;;7.37;4.03;;;25.50;46.70;;;;;;5052331;28;20458;-46
2022/05/13 11:06:24;;;;;;;4.20;3.40;;;25.60;46.70;;;;;;5056367;28;20844;-44
2022/05/13 11:09:13;;;;;;;6.90;3.80;;;25.80;47.50;;;;;;5059282;28;20515;-44
2022/05/13 11:11:40;;;;;;;5.50;3.40;;;25.90;46.60;;;;;;5027062;28;20470;-46
2022/05/13 11:14:20;;;;;;;6.33;3.77;;;25.90;45.10;;;;;;5060866;28;20531;-45
2022/05/13 11:16:58;;;;;;;6.10;3.37;;;25.90;45.40;;;;;;5058520;28;21323;-45
2022/05/13 11:19:44;;;;;;;4.10;3.20;;;26.00;45.60;;;;;;5060232;28;20473;-47
2022/05/13 11:22:44;;;;;;;12.90;3.40;;;26.10;45.90;;;;;;5060815;28;20438;-47
2022/05/13 11:28:10;;;;;;;5.00;3.00;;;26.10;44.70;;;;;;5056955;28;20532;-45
2022/05/13 11:30:47;;;;;;;3.70;2.80;;;26.10;44.40;;;;;;5059154;28;20437;-44
2022/05/13 11:33:24;;;;;;;4.17;3.10;;;26.20;44.40;;;;;;5065817;28;21074;-45
2022/05/13 11:36:07;;;;;;;6.20;3.70;;;26.10;44.60;;;;;;5066290;28;20819;-44
2022/05/13 11:38:36;;;;;;;7.30;3.50;;;26.20;44.20;;;;;;5063203;28;20900;-44
2022/05/13 11:41:13;;;;;;;10.10;3.57;;;26.30;44.20;;;;;;5061290;28;21937;-45
2022/05/13 11:44:01;;;;;;;5.27;3.30;;;26.50;44.00;;;;;;5059686;28;20456;-45
2022/05/13 11:46:36;;;;;;;5.93;3.30;;;26.60;46.00;;;;;;5054713;28;20464;-45
2022/05/13 11:49:12;;;;;;;5.70;3.50;;;26.70;43.90;;;;;;5058989;28;20500;-47
2022/05/13 11:51:38;;;;;;;5.27;3.07;;;26.80;43.10;;;;;;5052334;28;20450;-44
2022/05/13 11:54:03;;;;;;;4.93;3.53;;;26.70;43.20;;;;;;5065294;28;20449;-45
2022/05/13 11:56:38;;;;;;;4.10;3.80;;;26.60;43.60;;;;;;5069961;28;20426;-49
2022/05/13 11:59:11;;;;;;;5.90;3.87;;;26.70;43.60;;;;;;5057490;28;20202;-44
2022/05/13 12:01:36;;;;;;;4.77;3.10;;;26.80;43.50;;;;;;5069006;28;20528;-45
2022/05/13 12:04:11;;;;;;;6.03;3.70;;;26.80;43.40;;;;;;5057814;28;20921;-49
2022/05/13 12:06:51;;;;;;;4.90;3.23;;;26.90;43.70;;;;;;5054608;28;20663;-45
2022/05/13 12:09:44;;;;;;;3.10;2.80;;;27.10;44.30;;;;;;5059051;28;20559;-49
2022/05/13 12:12:49;;;;;;;4.10;3.70;;;27.00;42.80;;;;;;5057782;28;20882;-46
2022/05/13 12:15:50;;;;;;;4.70;3.17;;;27.10;43.00;;;;;;5064778;28;20906;-45
2022/05/13 12:18:39;;;;;;;4.73;3.17;;;26.90;42.40;;;;;;5026665;28;20454;-45
2022/05/13 12:21:41;;;;;;;6.93;3.53;;;26.90;43.20;;;;;;5060760;28;20541;-45
2022/05/13 12:24:10;;;;;;;3.77;2.97;;;26.80;42.70;;;;;;5054524;28;20462;-46
2022/05/13 12:26:51;;;;;;;3.43;3.00;;;26.80;43.80;;;;;;5058363;28;20459;-45
2022/05/13 12:29:22;;;;;;;4.37;3.47;;;26.90;43.00;;;;;;5065902;28;20561;-49
2022/05/13 12:31:53;;;;;;;3.97;3.63;;;27.20;43.50;;;;;;5057835;28;20447;-45
2022/05/13 12:37:33;;;;;;;5.87;3.37;;;27.40;41.30;;;;;;5064566;28;20454;-49
2022/05/13 12:40:02;;;;;;;5.20;3.67;;;27.60;41.80;;;;;;5061803;28;20446;-48
2022/05/13 12:42:44;;;;;;;5.03;3.03;;;27.70;42.30;;;;;;5060484;28;20451;-48
2022/05/13 12:45:12;;;;;;;3.57;2.50;;;27.90;41.30;;;;;;5067767;28;20440;-47
2022/05/13 12:48:08;;;;;;;8.30;3.40;;;28.00;41.30;;;;;;5059266;28;21001;-44
2022/05/13 12:50:37;;;;;;;5.37;3.20;;;28.10;40.40;;;;;;5053737;28;20451;-46
2022/05/13 12:53:28;;;;;;;6.60;3.33;;;27.50;40.20;;;;;;5055925;28;20442;-46
2022/05/13 12:56:00;;;;;;;4.93;3.10;;;27.60;40.60;;;;;;5060182;28;20473;-43
2022/05/13 12:58:28;;;;;;;6.50;3.00;;;27.50;40.30;;;;;;5061194;28;20945;-46
2022/05/13 13:00:55;;;;;;;3.97;3.67;;;27.70;40.20;;;;;;5063903;28;20470;-46
2022/05/13 13:03:22;;;;;;;4.73;3.17;;;27.80;39.70;;;;;;5056165;28;20453;-47
2022/05/13 13:06:06;;;;;;;3.07;2.77;;;27.90;40.20;;;;;;5064730;28;20438;-44
2022/05/13 13:08:36;;;;;;;3.47;3.03;;;28.20;40.40;;;;;;5063569;28;20549;-47
2022/05/13 13:11:09;;;;;;;4.30;2.70;;;28.00;39.60;;;;;;5060214;28;20488;-44
2022/05/13 13:13:41;;;;;;;3.20;2.90;;;27.80;38.90;;;;;;5060960;28;20446;-48
2022/05/13 13:16:16;;;;;;;7.80;3.17;;;27.90;39.30;;;;;;5062331;28;20446;-44
2022/05/13 13:18:42;;;;;;;4.87;2.60;;;27.90;39.00;;;;;;5062841;28;20814;-46
2022/05/13 13:21:12;;;;;;;3.30;2.70;;;27.60;38.30;;;;;;5054030;28;20431;-45
2022/05/13 13:23:43;;;;;;;6.23;2.90;;;27.60;39.90;;;;;;5055779;28;20188;-45
2022/05/13 13:26:13;;;;;;;3.43;2.73;;;27.80;38.60;;;;;;5065104;28;20449;-48
2022/05/13 13:28:40;;;;;;;5.90;2.87;;;27.90;39.80;;;;;;5063289;28;20482;-47
2022/05/13 13:31:11;;;;;;;8.67;3.27;;;28.00;37.80;;;;;;5065846;28;21051;-48
2022/05/13 13:33:46;;;;;;;3.70;2.60;;;28.40;38.30;;;;;;5062335;28;20530;-49
2022/05/13 13:36:27;;;;;;;3.23;2.60;;;28.50;37.30;;;;;;5068025;28;20434;-47